Les Masies de Roda





Hora UTC 03:05
Temperatura 12.7 ºC
Sòl 15 cm 9.2 ºC
Subsòl 10 cm 17.8 ºC
Humitat 70.2 %
Pressió 1007.9 hPa
Pluja 0.0 mm
Velocitat vent 0.6 km/h
Direcció vent ESE
Radiació solar 0.1 W/m²

Dades diàries 2022-05-23



Hora UTC (hivern +1h; estiu +2h)
Temperatura (ºC) Humitat (%) Pressió (hPa) Velocitat vent (km/h) Precipitació (mm) Radiació solar (W/m²)
Hora UTC Aire Sòl 15 cm Subsòl 10 cm Humitat Pressió Vel. Dir. Vel. Max Dir. Intent. màx 5 min. Rad. Sol.
00:05 15.3 12.5 19.5 61.3 1009.5 3.6 ENE 3.6 ENE 0.0 0.1
00:10 15.4 12.6 19.4 60.7 1009.4 3.1 E 6.0 ESE 0.0 0.1
00:15 15.3 12.8 19.4 62.6 1009.5 2.5 W 5.3 WNW 0.0 0.1
00:20 15.1 12.9 19.4 63.6 1009.7 7.1 W 15.9 WNW 0.0 0.1
00:25 15.1 13.0 19.4 62.3 1009.8 3.1 SSW 6.0 WNW 0.0 0.1
00:30 15.5 13.2 19.4 61.3 1009.4 5.0 E 8.8 ENE 0.0 0.1
00:35 15.6 13.4 19.4 59.4 1009.3 4.1 ENE 7.1 ESE 0.0 0.1
00:40 15.6 13.5 19.4 61.5 1009.2 3.5 NE 8.5 ESE 0.0 0.1
00:45 15.7 13.6 19.4 59.2 1009.2 6.2 N 11.0 ESE 0.0 0.1
00:50 15.7 13.5 19.4 58.5 1009.0 4.0 NE 7.1 NNE 0.0 0.1
00:55 15.5 13.3 19.4 62.2 1009.0 5.4 NNW 8.1 NW 0.0 0.1
01:00 15.3 13.0 19.3 60.6 1009.1 2.6 SSE 7.4 NW 0.0 0.1
01:05 15.8 13.0 19.3 57.3 1008.8 4.7 NE 7.8 N 0.0 0.1
01:10 15.5 13.0 19.2 60.2 1008.5 5.9 NNE 10.6 NNW 0.0 0.1
01:15 15.3 12.8 19.2 60.0 1008.5 4.4 NW 6.7 N 0.0 0.1
01:20 15.3 12.3 19.1 57.7 1008.8 4.0 SSW 8.1 S 0.0 0.1
01:25 15.7 12.1 19.0 55.7 1008.8 1.7 SSW 4.6 W 0.0 0.1
01:30 15.8 11.8 18.9 56.8 1009.1 5.7 SSW 12.0 SSW 0.0 0.1
01:35 16.0 12.0 18.9 57.7 1009.3 6.7 SSW 13.8 SSW 0.0 0.1
01:40 16.0 11.8 18.8 57.1 1009.0 3.3 NE 6.7 N 0.0 0.1
01:45 15.8 11.7 18.8 58.3 1008.9 2.3 NE 6.4 N 0.0 0.1
01:50 15.4 11.4 18.6 59.7 1008.9 1.9 ESE 4.2 E 0.0 0.2
01:55 15.0 11.1 18.6 61.3 1008.8 2.0 ENE 4.6 ENE 0.0 0.1
02:00 14.6 10.9 18.6 63.4 1008.7 0.4 ENE 3.2 ENE 0.0 0.1
02:05 14.2 10.5 18.5 64.8 1008.7 0.0 NNE 0.0 NW 0.0 0.1
02:10 14.0 10.2 18.4 65.7 1008.7 0.0 NNE 0.0 NW 0.0 0.1
02:15 13.8 9.9 18.4 66.7 1008.6 0.2 NW 1.8 NW 0.0 0.1
02:20 13.5 9.6 18.3 67.0 1008.6 1.1 SSW 3.5 SSW 0.0 0.1
02:25 13.4 9.5 18.2 68.5 1008.5 3.1 W 4.6 WNW 0.0 0.1
02:30 13.1 9.3 18.1 70.3 1008.4 2.7 NW 4.6 W 0.0 0.1
02:35 13.1 9.3 18.1 70.5 1008.3 3.0 NNW 4.2 NNW 0.0 0.1
02:40 12.9 9.2 18.0 71.1 1008.2 0.9 ENE 3.5 ESE 0.0 0.1
02:45 13.0 9.2 17.9 70.1 1008.0 3.1 ESE 5.3 ESE 0.0 0.1
02:50 12.8 9.3 17.9 71.1 1008.0 1.9 N 3.9 N 0.0 0.1
02:55 12.7 9.3 17.9 70.6 1008.0 1.3 NE 3.2 NNE 0.0 0.1
03:00 12.7 9.3 17.8 70.2 1007.9 1.0 E 2.8 ENE 0.0 0.1
03:05 12.7 9.2 17.8 70.2 1007.9 0.6 ESE 2.5 E 0.0 0.1
Màxima 16.0 13.6 19.5 71.1 1009.8 7.1 W 15.9 WNW 0.0 0.2
Mínima 12.6 9.2 17.8 55.7 1007.9
Total 0.0